首页
METAR-TAF:

METAR-TAF

机场 :

孟买, 印度

贾特拉帕蒂·希瓦吉国际机场

纬度: 19-07N, 经度: 072-51E, 海拔: 8米

当前天气观测

该预报发布于16分钟前的03:00 UTC
风速4节,风向
温度 24°C
湿度 47%
气压 1014 hPa
能見度: 2200

METAR: VABB 200300Z 10004KT 2200 FU NSC 24/12 Q1014 TEMPO 1500 FU

时间: 08:46 (03:16 UTC)

预报

该预报发布于4小时和16分钟前的23:00 UTC
预报有效从20日的 00点(UTC)到 21日的 06点(UTC)
风速3节,风向多变
能見度: 2000
霾, 烟
成为
从 20日的 04点(UTC)到 20日的 06点(UTC)
风速6节,风向
能見度: 3000
成为
从 20日的 08点(UTC)到 20日的 10点(UTC)
风速8节,风向西
能見度: 4000
成为
从 20日的 18点(UTC)到 20日的 20点(UTC)
风速节,风向
能見度: 3000
成为
从 20日的 22点(UTC)到 20日的 24点(UTC)
风速3节,风向多变
能見度: 2000
霾, 烟
成为
从 21日的 04点(UTC)到 21日的 06点(UTC)
风速6节,风向
能見度: 3000

TAF: VABB 192300Z 2000/2106 VRB03KT 2000 HZ FU NSC BECMG 2004/2006 10006KT 3000 FU BECMG 2008/2010 28008KT 4000 FU BECMG 2018/2020 00000KT 3000 FU BECMG 2022/2024 VRB03KT 2000 HZ FU BECMG 2104/2106 10006KT 3000 FU

超过4000个机场的气象观测和天气预报(METAR&TAF报告)。

可查询的气象台以黄色和红色小点在地图上表示。

将鼠标移到小点上方,可查看气象台名称。

然后点击查看天气观测和预报。

如需切换地图:点击带黑十字的绿色按钮放大地图;点击带横线的绿色按钮缩小地图;或者点击绿色箭头查看邻近地区的地图。


METAR-TAF: